createdAt,value
2018-01-23T00:00:27.320Z,26.80
2018-01-23T00:01:27.338Z,28.60
2018-01-23T00:02:27.355Z,27.60
2018-01-23T00:03:27.372Z,26.20
2018-01-23T00:04:27.393Z,29.50
2018-01-23T00:05:27.408Z,27.50
2018-01-23T00:06:27.425Z,29.70
2018-01-23T00:07:27.441Z,22.30
2018-01-23T00:08:27.457Z,28.80
2018-01-23T00:09:27.472Z,30.20
2018-01-23T00:10:27.494Z,32.10
2018-01-23T00:11:27.511Z,28.10
2018-01-23T00:12:27.528Z,30.90
2018-01-23T00:13:27.544Z,32.10
2018-01-23T00:14:27.560Z,24.70
2018-01-23T00:15:27.577Z,29.80
2018-01-23T00:16:27.597Z,27.00
2018-01-23T00:17:27.611Z,32.30
2018-01-23T00:18:27.628Z,34.50
2018-01-23T00:19:27.647Z,27.90
2018-01-23T00:20:27.663Z,28.80
2018-01-23T00:21:27.680Z,28.50
2018-01-23T00:22:27.697Z,27.10
2018-01-23T00:23:27.715Z,28.50
2018-01-23T00:24:27.730Z,32.50
2018-01-23T00:25:27.750Z,32.40
2018-01-23T00:26:27.766Z,29.40
2018-01-23T00:27:27.785Z,29.60
2018-01-23T00:28:27.798Z,28.20
2018-01-23T00:29:27.817Z,37.10
2018-01-23T00:30:27.834Z,27.50
2018-01-23T00:31:27.852Z,28.50
2018-01-23T00:32:27.870Z,25.30
2018-01-23T00:33:27.888Z,31.00
2018-01-23T00:34:27.903Z,28.50
2018-01-23T00:35:27.920Z,27.70
2018-01-23T00:36:27.940Z,30.20
2018-01-23T00:37:27.955Z,27.90
2018-01-23T00:38:27.973Z,32.20
2018-01-23T00:39:27.993Z,27.90
2018-01-23T00:40:28.008Z,30.70
2018-01-23T00:41:28.025Z,27.40
2018-01-23T00:42:28.041Z,27.00
2018-01-23T00:43:28.058Z,25.90
2018-01-23T00:44:28.078Z,27.50
2018-01-23T00:45:28.091Z,33.20
2018-01-23T00:46:28.109Z,35.30
2018-01-23T00:47:28.123Z,26.70
2018-01-23T00:48:28.141Z,27.20
2018-01-23T00:49:28.159Z,26.70
2018-01-23T00:50:28.176Z,29.10
2018-01-23T00:51:28.195Z,29.50
2018-01-23T00:52:28.212Z,33.90
2018-01-23T00:53:28.231Z,32.90
2018-01-23T00:54:28.246Z,29.60
2018-01-23T00:55:28.262Z,34.40
2018-01-23T00:56:28.279Z,31.80
2018-01-23T00:57:28.296Z,33.00
2018-01-23T00:58:28.313Z,34.80
2018-01-23T00:59:28.331Z,30.30
2018-01-23T01:00:28.348Z,29.30
2018-01-23T01:01:28.364Z,32.60
2018-01-23T01:02:28.383Z,29.60
2018-01-23T01:03:28.398Z,30.70
2018-01-23T01:04:28.418Z,33.00
2018-01-23T01:05:28.432Z,31.20
2018-01-23T01:06:28.449Z,31.00
2018-01-23T01:07:28.466Z,33.70
2018-01-23T01:08:28.484Z,29.80
2018-01-23T01:09:28.501Z,34.60
2018-01-23T01:10:28.518Z,29.70
2018-01-23T01:11:28.537Z,30.00
2018-01-23T01:12:28.554Z,31.80
2018-01-23T01:13:28.570Z,32.50
2018-01-23T01:14:28.589Z,32.20
2018-01-23T01:15:28.605Z,33.00
2018-01-23T01:16:28.616Z,35.50
2018-01-23T01:17:28.637Z,36.00
2018-01-23T01:18:28.655Z,30.60
2018-01-23T01:19:28.671Z,33.00
2018-01-23T01:20:28.693Z,31.60
2018-01-23T01:21:28.705Z,37.60
2018-01-23T01:22:28.723Z,32.10
2018-01-23T01:23:28.740Z,38.80
2018-01-23T01:24:28.761Z,33.30
2018-01-23T01:25:28.773Z,32.10
2018-01-23T01:26:28.796Z,31.80
2018-01-23T01:27:28.810Z,35.60
2018-01-23T01:28:28.826Z,33.30
2018-01-23T01:29:28.842Z,32.20
2018-01-23T01:30:28.860Z,34.80
2018-01-23T01:31:28.879Z,28.10
2018-01-23T01:32:28.895Z,29.80
2018-01-23T01:33:28.911Z,30.50
2018-01-23T01:34:28.929Z,31.30
2018-01-23T01:35:28.945Z,28.20
2018-01-23T01:36:28.963Z,33.10
2018-01-23T01:37:28.978Z,27.60
2018-01-23T01:38:28.995Z,32.60
2018-01-23T01:39:29.015Z,31.50
2018-01-23T01:40:29.032Z,38.20
2018-01-23T01:41:29.048Z,29.40
2018-01-23T01:42:29.066Z,28.80
2018-01-23T01:43:29.082Z,30.20
2018-01-23T01:44:29.099Z,32.70
2018-01-23T01:45:29.117Z,32.00
2018-01-23T01:46:29.134Z,29.00
2018-01-23T01:47:29.150Z,29.50
2018-01-23T01:48:29.168Z,31.80
2018-01-23T01:49:29.184Z,34.80
2018-01-23T01:50:29.199Z,32.50
2018-01-23T01:51:29.219Z,30.50
2018-01-23T01:52:29.237Z,27.90
2018-01-23T01:53:29.254Z,30.40
2018-01-23T01:54:29.271Z,30.80
2018-01-23T01:55:29.287Z,28.20
2018-01-23T01:56:29.303Z,27.20
2018-01-23T01:57:29.319Z,25.00
2018-01-23T01:58:29.338Z,34.50
2018-01-23T01:59:29.354Z,34.30
2018-01-23T02:00:29.374Z,28.30
2018-01-23T02:01:29.389Z,29.40
2018-01-23T02:02:29.406Z,30.00
2018-01-23T02:03:29.423Z,24.50
2018-01-23T02:04:29.440Z,27.00
2018-01-23T02:05:29.455Z,29.20
2018-01-23T02:06:29.473Z,29.70
2018-01-23T02:07:29.490Z,25.00
2018-01-23T02:08:29.508Z,29.60
2018-01-23T02:09:29.525Z,25.70
2018-01-23T02:10:29.541Z,29.50
2018-01-23T02:11:29.558Z,31.50
2018-01-23T02:12:29.575Z,25.70
2018-01-23T02:13:29.593Z,28.50
2018-01-23T02:14:29.610Z,23.40
2018-01-23T02:15:29.625Z,29.10
2018-01-23T02:16:29.643Z,25.00
2018-01-23T02:17:29.657Z,29.40
2018-01-23T02:18:29.675Z,30.70
2018-01-23T02:19:29.692Z,27.10
2018-01-23T02:20:29.711Z,27.50
2018-01-23T02:21:29.722Z,27.40
2018-01-23T02:22:29.744Z,30.10
2018-01-23T02:23:29.760Z,33.60
2018-01-23T02:24:29.834Z,26.70
2018-01-23T02:25:29.795Z,24.10
2018-01-23T02:26:29.812Z,29.70
2018-01-23T02:27:29.833Z,29.90
2018-01-23T02:28:29.844Z,29.20
2018-01-23T02:29:29.862Z,29.50
2018-01-23T02:30:29.879Z,29.20
2018-01-23T02:31:29.891Z,26.50
2018-01-23T02:32:29.910Z,28.90
2018-01-23T02:33:29.930Z,30.60
2018-01-23T02:34:29.947Z,26.50
2018-01-23T02:35:29.965Z,27.10
2018-01-23T02:36:29.982Z,24.60
2018-01-23T02:37:29.997Z,27.50
2018-01-23T02:38:30.020Z,29.80
2018-01-23T02:39:30.032Z,29.60
2018-01-23T02:40:30.050Z,27.10
2018-01-23T02:41:30.065Z,28.90
2018-01-23T02:42:30.084Z,25.60
2018-01-23T02:43:30.098Z,28.50
2018-01-23T02:44:30.117Z,28.90
2018-01-23T02:45:30.134Z,25.60
2018-01-23T02:46:30.151Z,27.10
2018-01-23T02:47:30.168Z,25.30
2018-01-23T02:48:30.184Z,26.50
2018-01-23T02:49:30.199Z,24.90
2018-01-23T02:50:30.221Z,27.20
2018-01-23T02:51:30.235Z,24.50
2018-01-23T02:52:30.244Z,25.60
2018-01-23T02:53:30.268Z,26.60
2018-01-23T02:54:30.284Z,27.00
2018-01-23T02:55:30.303Z,28.20
2018-01-23T02:56:30.319Z,27.20
2018-01-23T02:57:30.335Z,22.60
2018-01-23T02:58:30.352Z,21.70
2018-01-23T02:59:30.371Z,24.00
2018-01-23T03:00:30.385Z,26.80
2018-01-23T03:01:30.399Z,25.40
2018-01-23T03:02:30.420Z,25.80
2018-01-23T03:03:30.438Z,23.50
2018-01-23T03:04:30.455Z,25.20
2018-01-23T03:05:30.471Z,27.30
2018-01-23T03:06:30.487Z,26.80
2018-01-23T03:07:30.505Z,27.80
2018-01-23T03:08:30.518Z,26.00
2018-01-23T03:09:30.540Z,25.90
2018-01-23T03:10:30.559Z,27.30
2018-01-23T03:11:30.572Z,26.30
2018-01-23T03:12:30.590Z,22.70
2018-01-23T03:13:30.605Z,26.30
2018-01-23T03:14:30.622Z,24.00
2018-01-23T03:15:30.640Z,28.90
2018-01-23T03:16:30.661Z,27.50
2018-01-23T03:17:30.676Z,22.70
2018-01-23T03:18:30.691Z,22.40
2018-01-23T03:19:30.710Z,26.60
2018-01-23T03:20:30.722Z,21.40
2018-01-23T03:21:30.784Z,24.40
2018-01-23T03:22:30.753Z,25.20
2018-01-23T03:23:30.775Z,24.30
2018-01-23T03:24:30.788Z,22.80
2018-01-23T03:25:30.808Z,26.90
2018-01-23T03:26:30.831Z,28.30
2018-01-23T03:27:30.840Z,25.00
2018-01-23T03:28:30.866Z,23.70
2018-01-23T03:29:30.878Z,24.30
2018-01-23T03:30:30.895Z,23.30
2018-01-23T03:31:30.908Z,21.20
2018-01-23T03:32:30.928Z,28.50
2018-01-23T03:33:30.945Z,23.10
2018-01-23T03:34:30.960Z,25.40
2018-01-23T03:35:30.978Z,23.90
2018-01-23T03:36:30.996Z,27.00
2018-01-23T03:37:31.006Z,24.30
2018-01-23T03:38:31.030Z,26.10
2018-01-23T03:39:31.043Z,25.00
2018-01-23T03:40:31.063Z,22.90
2018-01-23T03:41:31.080Z,22.30
2018-01-23T03:42:31.097Z,28.20
2018-01-23T03:43:31.115Z,22.90
2018-01-23T03:44:31.129Z,25.50
2018-01-23T03:45:31.148Z,23.10
2018-01-23T03:46:31.165Z,21.40
2018-01-23T03:47:31.183Z,19.80
2018-01-23T03:48:31.199Z,20.20
2018-01-23T03:49:31.218Z,20.70
2018-01-23T03:50:31.232Z,23.60
2018-01-23T03:51:31.250Z,25.30
2018-01-23T03:52:31.265Z,23.20
2018-01-23T03:53:31.282Z,23.00
2018-01-23T03:54:31.300Z,20.90
2018-01-23T03:55:31.322Z,24.50
2018-01-23T03:56:31.337Z,24.60
2018-01-23T03:57:31.350Z,22.10
2018-01-23T03:58:31.373Z,22.70
2018-01-23T03:59:31.379Z,23.50
2018-01-23T04:00:31.408Z,25.70
2018-01-23T04:01:31.420Z,26.10
2018-01-23T04:02:31.436Z,24.90
2018-01-23T04:03:31.454Z,24.50
2018-01-23T04:04:31.470Z,23.00
2018-01-23T04:05:31.483Z,23.00
2018-01-23T04:06:31.503Z,22.40
2018-01-23T04:07:31.523Z,20.20
2018-01-23T04:08:31.538Z,22.80
2018-01-23T04:09:31.553Z,24.30
2018-01-23T04:10:31.573Z,23.70
2018-01-23T04:11:31.588Z,24.90
2018-01-23T04:12:31.604Z,22.90
2018-01-23T04:13:31.622Z,26.40
2018-01-23T04:14:31.638Z,24.70
2018-01-23T04:15:31.650Z,21.60
2018-01-23T04:16:31.670Z,26.70
2018-01-23T04:17:31.690Z,23.90
2018-01-23T04:18:31.706Z,24.60
2018-01-23T04:19:31.726Z,21.10
2018-01-23T04:20:31.742Z,22.90
2018-01-23T04:21:31.760Z,22.10
2018-01-23T04:22:31.773Z,27.60
2018-01-23T04:23:31.794Z,25.00
2018-01-23T04:24:31.809Z,25.00
2018-01-23T04:25:31.827Z,26.90
2018-01-23T04:26:31.840Z,24.70
2018-01-23T04:27:31.861Z,24.80
2018-01-23T04:28:31.874Z,20.90
2018-01-23T04:29:31.893Z,21.10
2018-01-23T04:30:31.906Z,24.20
2018-01-23T04:31:31.926Z,21.20
2018-01-23T04:32:31.946Z,22.60
2018-01-23T04:33:31.959Z,23.90
2018-01-23T04:34:31.978Z,25.00
2018-01-23T04:35:31.996Z,19.60
2018-01-23T04:36:32.005Z,24.00
2018-01-23T04:37:32.024Z,23.50
2018-01-23T04:38:32.044Z,20.50
2018-01-23T04:39:32.059Z,22.80
2018-01-23T04:40:32.080Z,22.60
2018-01-23T04:41:32.096Z,22.70
2018-01-23T04:42:32.111Z,23.10
2018-01-23T04:43:32.130Z,19.60
2018-01-23T04:44:32.143Z,24.50
2018-01-23T04:45:32.164Z,21.60
2018-01-23T04:46:32.180Z,22.50
2018-01-23T04:47:32.198Z,21.80
2018-01-23T04:48:32.216Z,21.80
2018-01-23T04:49:32.231Z,20.70
2018-01-23T04:50:32.251Z,23.70
2018-01-23T04:51:32.266Z,26.40
2018-01-23T04:52:32.283Z,19.10
2018-01-23T04:53:32.299Z,24.80
2018-01-23T04:54:32.319Z,20.40
2018-01-23T04:55:32.334Z,20.30
2018-01-23T04:56:32.351Z,19.00
2018-01-23T04:57:32.369Z,19.60
2018-01-23T04:58:32.383Z,24.70
2018-01-23T04:59:32.403Z,21.90
2018-01-23T05:00:32.422Z,18.60
2018-01-23T05:01:32.438Z,21.40
2018-01-23T05:02:32.454Z,19.70
2018-01-23T05:03:32.469Z,16.20
2018-01-23T05:04:32.486Z,21.40
2018-01-23T05:05:32.498Z,23.60
2018-01-23T05:06:32.515Z,21.90
2018-01-23T05:07:32.536Z,21.90
2018-01-23T05:08:32.554Z,23.30
2018-01-23T05:09:32.572Z,19.00
2018-01-23T05:10:32.583Z,21.70
2018-01-23T05:11:32.608Z,23.00
2018-01-23T05:12:32.624Z,19.50
2018-01-23T05:13:32.640Z,21.40
2018-01-23T05:14:32.692Z,19.70
2018-01-23T05:15:32.674Z,22.20
2018-01-23T05:16:32.691Z,20.60
2018-01-23T05:17:32.709Z,18.60
2018-01-23T05:18:32.720Z,19.10
2018-01-23T05:19:32.742Z,18.30
2018-01-23T05:20:32.757Z,19.90
2018-01-23T05:21:32.774Z,22.60
2018-01-23T05:22:32.795Z,19.70
2018-01-23T05:23:32.813Z,22.30
2018-01-23T05:24:32.828Z,22.30
2018-01-23T05:25:32.843Z,21.00
2018-01-23T05:26:32.855Z,25.30
2018-01-23T05:27:32.879Z,20.80
2018-01-23T05:28:32.891Z,26.20
2018-01-23T05:29:32.913Z,22.20
2018-01-23T05:30:32.931Z,18.20
2018-01-23T05:31:32.945Z,20.60
2018-01-23T05:32:32.965Z,21.40
2018-01-23T05:33:32.980Z,22.00
2018-01-23T05:34:32.997Z,22.50
2018-01-23T05:35:33.012Z,21.90
2018-01-23T05:36:33.032Z,22.60
2018-01-23T05:37:33.047Z,20.30
2018-01-23T05:38:33.066Z,18.30
2018-01-23T05:39:33.084Z,18.20
2018-01-23T05:40:33.098Z,21.60
2018-01-23T05:41:33.114Z,21.10
2018-01-23T05:42:33.134Z,23.10
2018-01-23T05:43:33.150Z,22.60
2018-01-23T05:44:33.169Z,22.00
2018-01-23T05:45:33.183Z,20.50
2018-01-23T05:46:33.202Z,25.10
2018-01-23T05:47:33.220Z,18.70
2018-01-23T05:48:33.236Z,21.00
2018-01-23T05:49:33.250Z,21.40
2018-01-23T05:50:33.277Z,20.30
2018-01-23T05:51:33.287Z,24.10
2018-01-23T05:52:33.303Z,20.50
2018-01-23T05:53:33.322Z,20.90
2018-01-23T05:54:33.341Z,20.70
2018-01-23T05:55:33.355Z,19.50
2018-01-23T05:56:33.374Z,18.80
2018-01-23T05:57:33.388Z,22.00
2018-01-23T05:58:33.404Z,20.40
2018-01-23T05:59:33.422Z,18.70
2018-01-23T06:00:33.440Z,18.30
2018-01-23T06:01:33.457Z,19.80
2018-01-23T06:02:33.476Z,20.00
2018-01-23T06:03:33.499Z,19.70
2018-01-23T06:04:33.510Z,20.00
2018-01-23T06:05:33.526Z,20.00
2018-01-23T06:06:33.543Z,23.00
2018-01-23T06:07:33.560Z,20.20
2018-01-23T06:08:33.607Z,22.50
2018-01-23T06:09:33.595Z,20.30
2018-01-23T06:10:33.614Z,18.20
2018-01-23T06:11:33.627Z,19.60
2018-01-23T06:12:33.646Z,19.10
2018-01-23T06:13:33.663Z,20.30
2018-01-23T06:14:33.679Z,22.50
2018-01-23T06:15:33.699Z,19.50
2018-01-23T06:16:33.715Z,20.80
2018-01-23T06:17:33.731Z,23.00
2018-01-23T06:18:33.753Z,21.50
2018-01-23T06:19:33.766Z,21.70
2018-01-23T06:20:33.785Z,19.20
2018-01-23T06:21:33.802Z,21.70
2018-01-23T06:22:33.818Z,19.30
2018-01-23T06:23:33.836Z,27.90
2018-01-23T06:24:33.853Z,22.00
2018-01-23T06:25:33.872Z,22.20
2018-01-23T06:26:33.895Z,20.80
2018-01-23T06:27:33.903Z,24.80
2018-01-23T06:28:33.922Z,24.60
2018-01-23T06:29:33.940Z,25.20
2018-01-23T06:30:33.959Z,24.70
2018-01-23T06:31:33.971Z,22.80
2018-01-23T06:32:33.990Z,24.30
2018-01-23T06:33:34.014Z,25.10
2018-01-23T06:34:34.032Z,21.50
2018-01-23T06:35:34.040Z,24.20
2018-01-23T06:36:34.062Z,23.80
2018-01-23T06:37:34.074Z,25.50
2018-01-23T06:38:34.093Z,26.20
2018-01-23T06:39:34.116Z,26.50
2018-01-23T06:40:34.126Z,21.50
2018-01-23T06:41:34.150Z,23.40
2018-01-23T06:42:34.167Z,22.80
2018-01-23T06:43:34.187Z,21.10
2018-01-23T06:44:34.204Z,26.90
2018-01-23T06:45:34.222Z,24.00
2018-01-23T06:46:34.238Z,20.20
2018-01-23T06:47:34.248Z,21.80
2018-01-23T06:48:34.272Z,25.90
2018-01-23T06:49:34.288Z,21.60
2018-01-23T06:50:34.306Z,22.30
2018-01-23T06:51:34.326Z,23.20
2018-01-23T06:52:34.342Z,21.70
2018-01-23T06:53:34.362Z,20.40
2018-01-23T06:54:34.375Z,26.50
2018-01-23T06:55:34.384Z,23.40
2018-01-23T06:56:34.405Z,25.00
2018-01-23T06:57:34.427Z,22.50
2018-01-23T06:58:34.441Z,24.20
2018-01-23T06:59:34.452Z,23.50
2018-01-23T07:00:34.470Z,21.00
2018-01-23T07:01:34.487Z,23.90
2018-01-23T07:02:34.514Z,24.70
2018-01-23T07:03:34.532Z,22.80
2018-01-23T07:04:34.548Z,23.20
2018-01-23T07:05:34.562Z,25.90
2018-01-23T07:06:34.600Z,22.90
2018-01-23T07:07:34.595Z,22.50
2018-01-23T07:08:34.618Z,23.10
2018-01-23T07:09:34.634Z,22.20
2018-01-23T07:10:34.647Z,23.60
2018-01-23T07:11:34.661Z,21.10
2018-01-23T07:12:34.672Z,21.50
2018-01-23T07:13:34.692Z,22.60
2018-01-23T07:14:34.714Z,24.60
2018-01-23T07:15:34.729Z,22.10
2018-01-23T07:16:34.751Z,31.60
2018-01-23T07:17:34.758Z,29.60
2018-01-23T07:18:34.789Z,23.90
2018-01-23T07:19:34.800Z,26.90
2018-01-23T07:20:34.811Z,26.40
2018-01-23T07:21:34.827Z,23.90
2018-01-23T07:22:34.850Z,27.90
2018-01-23T07:23:34.862Z,23.30
2018-01-23T07:24:34.890Z,24.30
2018-01-23T07:25:34.899Z,22.50
2018-01-23T07:26:34.915Z,25.10
2018-01-23T07:27:34.932Z,27.00
2018-01-23T07:28:34.951Z,24.90
2018-01-23T07:29:34.971Z,24.80
2018-01-23T07:30:34.986Z,22.50
2018-01-23T07:31:35.006Z,26.50
2018-01-23T07:32:35.020Z,22.60
2018-01-23T07:33:35.036Z,21.10
2018-01-23T07:34:35.053Z,23.90
2018-01-23T07:35:35.077Z,21.60
2018-01-23T07:36:35.093Z,26.90
2018-01-23T07:37:35.106Z,29.00
2018-01-23T07:38:35.127Z,21.70
2018-01-23T07:39:35.139Z,22.60
2018-01-23T07:40:35.165Z,26.10
2018-01-23T07:41:35.181Z,22.70
2018-01-23T07:42:35.194Z,23.90
2018-01-23T07:43:35.225Z,23.10
2018-01-23T07:44:35.226Z,23.50
2018-01-23T07:45:35.246Z,23.40
2018-01-23T07:46:35.262Z,24.50
2018-01-23T07:47:35.291Z,27.70
2018-01-23T07:48:35.295Z,21.40
2018-01-23T07:49:35.469Z,20.10
2018-01-23T07:50:35.328Z,25.00
2018-01-23T07:51:35.351Z,26.60
2018-01-23T07:52:35.361Z,22.20
2018-01-23T07:53:35.380Z,23.90
2018-01-23T07:54:35.397Z,21.80
2018-01-23T07:55:35.416Z,22.90
2018-01-23T07:56:35.465Z,21.70
2018-01-23T07:57:35.451Z,22.30
2018-01-23T07:58:35.470Z,24.20
2018-01-23T07:59:35.494Z,24.90
2018-01-23T08:00:35.511Z,26.70
2018-01-23T08:01:35.522Z,22.80
2018-01-23T08:02:35.536Z,19.70
2018-01-23T08:03:35.560Z,23.60
2018-01-23T08:04:35.603Z,21.00
2018-01-23T08:05:35.630Z,22.00
2018-01-23T08:06:35.637Z,22.20
2018-01-23T08:07:35.626Z,24.70
2018-01-23T08:08:35.641Z,19.70
2018-01-23T08:09:35.664Z,24.30
2018-01-23T08:10:35.678Z,23.70
2018-01-23T08:11:35.698Z,24.40
2018-01-23T08:12:35.713Z,20.00
2018-01-23T08:13:35.728Z,19.40
2018-01-23T08:14:35.754Z,24.00
2018-01-23T08:15:35.768Z,23.30
2018-01-23T08:16:35.779Z,19.80
2018-01-23T08:17:35.795Z,24.00
2018-01-23T08:18:35.813Z,23.30
2018-01-23T08:19:35.832Z,21.40
2018-01-23T08:20:35.849Z,22.70
2018-01-23T08:21:35.867Z,21.80
2018-01-23T08:22:35.884Z,19.80
2018-01-23T08:23:35.900Z,20.60
2018-01-23T08:24:35.920Z,20.50
2018-01-23T08:25:35.936Z,22.60
2018-01-23T08:26:35.960Z,20.40
2018-01-23T08:27:35.971Z,21.60
2018-01-23T08:28:35.989Z,22.00
2018-01-23T08:29:36.005Z,20.30
2018-01-23T08:30:36.021Z,18.80
2018-01-23T08:31:36.047Z,23.60
2018-01-23T08:32:36.057Z,19.00
2018-01-23T08:33:36.071Z,18.00
2018-01-23T08:34:36.101Z,18.40
2018-01-23T08:35:36.107Z,20.40
2018-01-23T08:36:36.135Z,18.70
2018-01-23T08:37:36.150Z,20.60
2018-01-23T08:38:36.430Z,18.10
2018-01-23T08:39:36.180Z,23.70
2018-01-23T08:40:36.197Z,20.80
2018-01-23T08:41:36.219Z,17.80
2018-01-23T08:42:36.237Z,19.00
2018-01-23T08:43:36.252Z,23.10
2018-01-23T08:44:36.276Z,20.50
2018-01-23T08:45:36.287Z,18.00
2018-01-23T08:46:36.300Z,20.40
2018-01-23T08:47:36.318Z,20.30
2018-01-23T08:48:36.342Z,18.50
2018-01-23T08:49:36.358Z,21.70
2018-01-23T08:50:36.375Z,19.50
2018-01-23T08:51:36.395Z,19.10
2018-01-23T08:52:36.411Z,19.30
2018-01-23T08:53:36.426Z,18.50
2018-01-23T08:54:36.444Z,15.90
2018-01-23T08:55:36.461Z,17.60
2018-01-23T08:56:36.527Z,20.10
2018-01-23T08:57:36.500Z,20.80
2018-01-23T08:58:36.515Z,15.20
2018-01-23T08:59:36.528Z,20.20
2018-01-23T09:00:36.552Z,18.00
2018-01-23T09:01:36.566Z,22.40
2018-01-23T09:02:36.599Z,15.90
2018-01-23T09:03:36.613Z,18.30
2018-01-23T09:04:36.634Z,19.10
2018-01-23T09:05:36.653Z,17.20
2018-01-23T09:06:36.667Z,17.90
2018-01-23T09:07:36.675Z,21.70
2018-01-23T09:08:36.708Z,18.60
2018-01-23T09:09:36.716Z,20.90
2018-01-23T09:10:36.725Z,21.40
2018-01-23T09:11:36.752Z,21.00
2018-01-23T09:12:36.768Z,16.40
2018-01-23T09:13:36.796Z,17.20
2018-01-23T09:14:36.804Z,20.60
2018-01-23T09:15:36.824Z,17.40
2018-01-23T09:16:36.900Z,16.20
2018-01-23T09:17:36.920Z,17.90
2018-01-23T09:18:36.900Z,17.40
2018-01-23T09:19:36.943Z,17.40
2018-01-23T09:20:36.972Z,15.90
2018-01-23T09:21:36.931Z,18.30
2018-01-23T09:22:36.990Z,16.50
2018-01-23T09:23:37.030Z,16.00
2018-01-23T09:24:37.073Z,17.10
2018-01-23T09:25:37.080Z,17.10
2018-01-23T09:26:37.054Z,20.10
2018-01-23T09:27:37.041Z,16.80
2018-01-23T09:28:37.086Z,18.00
2018-01-23T09:29:37.075Z,21.30
2018-01-23T09:33:20.913Z,16.90
